Time;durP1;ratioP1;P1;durP2;ratioP2;P2;SDS_P1;SDS_P2;PMS_P1;PMS_P2;Temp;Humidity;BMP_temperature;BMP_pressure;BME280_temperature;BME280_humidity;BME280_pressure;Samples;Min_cycle;Max_cycle;Signal;HPM_P1;HPM_P2
2023/05/02 00:02:11;;;;;;;1.17;1.10;;;10.40;99.90;;;;;;5032761;28;20072;-78
2023/05/02 00:04:36;;;;;;;1.10;1.00;;;10.40;99.90;;;;;;5031768;28;20534;-77
2023/05/02 00:07:02;;;;;;;1.20;1.20;;;10.40;99.90;;;;;;5030406;28;20041;-76
2023/05/02 00:09:28;;;;;;;1.30;1.23;;;10.40;99.90;;;;;;5033015;28;20359;-77
2023/05/02 00:11:54;;;;;;;1.27;1.17;;;10.40;99.90;;;;;;5031817;28;20037;-77
2023/05/02 00:14:20;;;;;;;1.13;1.02;;;10.40;99.90;;;;;;5010275;28;20029;-76
2023/05/02 00:16:45;;;;;;;1.00;1.00;;;10.40;99.90;;;;;;5029765;28;20095;-76
2023/05/02 00:19:11;;;;;;;0.90;0.90;;;10.40;99.90;;;;;;5012690;28;20050;-78
2023/05/02 00:21:37;;;;;;;1.00;0.90;;;10.40;99.90;;;;;;5023986;28;20018;-78
2023/05/02 00:24:03;;;;;;;0.98;0.98;;;10.30;99.90;;;;;;5031455;28;20065;-77
2023/05/02 00:26:28;;;;;;;0.93;0.93;;;10.30;99.90;;;;;;5035999;28;20053;-75
2023/05/02 00:28:54;;;;;;;1.17;1.15;;;10.30;99.90;;;;;;5022899;28;20033;-76
2023/05/02 00:31:20;;;;;;;0.90;0.90;;;10.30;99.90;;;;;;5037246;28;20167;-76
2023/05/02 00:33:45;;;;;;;1.25;1.15;;;10.20;99.90;;;;;;5040781;28;20037;-77
2023/05/02 00:36:18;;;;;;;1.23;1.13;;;10.20;99.90;;;;;;5038339;28;20123;-75
2023/05/02 00:38:44;;;;;;;1.00;1.00;;;10.20;99.90;;;;;;5039114;28;20022;-76
2023/05/02 00:41:11;;;;;;;1.20;1.10;;;10.20;99.90;;;;;;5039276;28;20121;-77
2023/05/02 00:43:40;;;;;;;1.52;1.42;;;10.10;99.90;;;;;;5038576;28;20021;-76
2023/05/02 00:46:06;;;;;;;1.60;1.50;;;10.10;99.90;;;;;;5019338;28;20037;-77
2023/05/02 00:48:32;;;;;;;1.52;1.42;;;10.00;99.90;;;;;;5031172;28;20490;-77
2023/05/02 00:51:00;;;;;;;1.55;1.20;;;10.00;99.90;;;;;;5037613;28;20052;-76
2023/05/02 00:53:26;;;;;;;1.92;1.45;;;10.00;99.90;;;;;;5038173;28;20387;-76
2023/05/02 00:55:53;;;;;;;1.20;1.20;;;10.00;99.90;;;;;;5038183;28;20087;-77
2023/05/02 00:58:19;;;;;;;0.90;0.90;;;10.00;99.90;;;;;;5026849;28;20036;-75
2023/05/02 01:00:51;;;;;;;1.88;1.15;;;9.90;99.90;;;;;;5017954;28;20022;-76
2023/05/02 01:03:28;;;;;;;1.30;1.20;;;9.80;99.90;;;;;;5001405;28;20026;-76
2023/05/02 01:06:32;;;;;;;1.05;0.95;;;9.80;99.90;;;;;;5019826;28;20048;-76
2023/05/02 01:09:13;;;;;;;0.90;0.90;;;9.70;99.90;;;;;;5000943;28;20096;-77
2023/05/02 01:11:54;;;;;;;1.15;1.15;;;9.60;99.90;;;;;;5000644;28;20030;-76
2023/05/02 01:14:21;;;;;;;0.82;0.82;;;9.60;99.90;;;;;;5024377;28;20067;-77
2023/05/02 01:16:49;;;;;;;0.70;0.70;;;9.60;99.90;;;;;;5025662;28;20409;-76
2023/05/02 01:19:32;;;;;;;1.02;0.93;;;9.50;99.90;;;;;;5018423;28;20125;-77
2023/05/02 01:22:00;;;;;;;1.05;1.05;;;9.50;99.90;;;;;;5036936;28;20078;-76
2023/05/02 01:24:35;;;;;;;1.25;1.08;;;9.50;99.90;;;;;;5020167;28;20025;-77
2023/05/02 01:27:11;;;;;;;1.40;1.30;;;9.40;99.90;;;;;;5019124;28;20489;-76
2023/05/02 01:29:39;;;;;;;0.80;0.80;;;9.40;99.90;;;;;;5036580;28;20044;-77
2023/05/02 01:32:07;;;;;;;1.52;1.40;;;9.40;99.90;;;;;;5037783;28;20021;-76
2023/05/02 01:34:39;;;;;;;1.40;1.30;;;9.40;99.90;;;;;;5037693;28;20044;-75
2023/05/02 01:37:11;;;;;;;1.50;1.45;;;9.40;99.90;;;;;;5038885;28;20025;-79
2023/05/02 01:39:39;;;;;;;1.02;1.02;;;9.40;99.90;;;;;;5008099;28;20052;-76
2023/05/02 01:42:05;;;;;;;1.35;1.35;;;9.40;99.90;;;;;;5018158;28;20045;-76
2023/05/02 01:44:35;;;;;;;1.38;1.30;;;9.40;99.90;;;;;;5035123;28;20137;-75
2023/05/02 01:47:04;;;;;;;1.63;1.50;;;9.30;99.90;;;;;;5035854;28;20081;-76
2023/05/02 01:49:32;;;;;;;1.00;1.00;;;9.30;99.90;;;;;;5018097;28;20026;-76
2023/05/02 01:52:04;;;;;;;1.63;1.10;;;9.30;99.90;;;;;;5015549;28;20041;-77
2023/05/02 01:54:33;;;;;;;1.00;1.00;;;9.30;99.90;;;;;;5017726;28;20112;-76
2023/05/02 01:57:02;;;;;;;1.45;1.38;;;9.30;99.90;;;;;;5022260;28;20124;-75
2023/05/02 01:59:31;;;;;;;0.90;0.90;;;9.30;99.90;;;;;;5037491;28;20045;-76
2023/05/02 02:02:00;;;;;;;1.30;1.20;;;9.30;99.90;;;;;;5038282;28;20028;-75
2023/05/02 02:04:28;;;;;;;1.27;1.23;;;9.30;99.90;;;;;;5037731;28;20022;-77
2023/05/02 02:07:07;;;;;;;1.50;1.40;;;9.30;99.90;;;;;;5036139;28;20426;-76
2023/05/02 02:09:36;;;;;;;1.10;1.10;;;9.30;99.90;;;;;;5037068;28;20026;-77
2023/05/02 02:12:14;;;;;;;1.25;1.23;;;9.30;99.90;;;;;;5036958;28;20025;-76
2023/05/02 02:14:45;;;;;;;1.15;1.05;;;9.30;99.90;;;;;;5040615;28;20162;-75
2023/05/02 02:17:34;;;;;;;1.00;1.00;;;9.30;99.90;;;;;;5026780;28;20462;-77
2023/05/02 02:20:02;;;;;;;0.90;0.90;;;9.30;99.90;;;;;;5015846;28;20084;-74
2023/05/02 02:22:29;;;;;;;0.70;0.70;;;9.30;99.90;;;;;;4998766;28;20470;-75
2023/05/02 02:24:58;;;;;;;0.98;0.98;;;9.40;99.90;;;;;;5014814;28;20199;-77
2023/05/02 02:27:25;;;;;;;0.90;0.90;;;9.40;99.90;;;;;;5018073;28;20032;-77
2023/05/02 02:29:51;;;;;;;0.85;0.85;;;9.40;99.90;;;;;;5037434;28;20514;-76
2023/05/02 02:32:16;;;;;;;0.90;0.90;;;9.40;99.90;;;;;;5035564;28;20163;-76
2023/05/02 02:34:42;;;;;;;1.27;0.93;;;9.50;99.90;;;;;;5035553;28;20025;-77
2023/05/02 02:37:18;;;;;;;0.80;0.80;;;9.50;99.90;;;;;;5035685;28;20117;-75
2023/05/02 02:40:02;;;;;;;0.80;0.80;;;9.50;99.90;;;;;;5016732;28;20052;-76
2023/05/02 02:42:41;;;;;;;0.73;0.73;;;9.50;99.90;;;;;;5023741;28;20041;-76
2023/05/02 02:45:34;;;;;;;0.77;0.77;;;9.50;99.90;;;;;;5031066;28;20046;-75
2023/05/02 02:48:18;;;;;;;0.80;0.80;;;9.50;99.90;;;;;;5036273;28;20022;-77
2023/05/02 02:50:54;;;;;;;0.90;0.90;;;9.50;99.90;;;;;;5035031;28;20363;-76
2023/05/02 02:53:32;;;;;;;0.85;0.85;;;9.50;99.90;;;;;;5035002;28;20030;-76
2023/05/02 02:56:04;;;;;;;0.75;0.75;;;9.50;99.90;;;;;;5039722;28;20098;-77
2023/05/02 02:58:51;;;;;;;1.20;1.10;;;9.50;99.90;;;;;;5033031;28;20018;-77
2023/05/02 03:01:19;;;;;;;1.63;1.30;;;9.50;99.90;;;;;;5017739;28;20032;-75
2023/05/02 03:03:47;;;;;;;1.10;1.00;;;9.50;99.90;;;;;;5016597;28;20041;-77
2023/05/02 03:06:14;;;;;;;1.02;1.02;;;9.50;99.90;;;;;;5021920;28;20045;-76
2023/05/02 03:08:40;;;;;;;1.00;1.00;;;9.60;99.90;;;;;;5029847;28;20025;-76
2023/05/02 03:11:07;;;;;;;1.10;1.00;;;9.50;99.90;;;;;;5039471;28;20042;-76
2023/05/02 03:13:33;;;;;;;1.00;1.00;;;9.50;99.90;;;;;;5038384;28;20032;-77
2023/05/02 03:16:34;;;;;;;1.58;1.10;;;9.60;99.90;;;;;;5020316;28;20018;-76
2023/05/02 03:19:00;;;;;;;0.98;0.98;;;9.50;99.90;;;;;;5016589;28;20029;-76
2023/05/02 03:21:26;;;;;;;1.60;1.50;;;9.50;99.90;;;;;;5018444;28;20034;-77
2023/05/02 03:23:52;;;;;;;1.42;1.33;;;9.50;99.90;;;;;;5021185;28;20053;-77
2023/05/02 03:26:17;;;;;;;1.10;1.00;;;9.50;99.90;;;;;;5023711;28;20064;-77
2023/05/02 03:28:46;;;;;;;1.30;1.20;;;9.50;99.90;;;;;;5028454;28;20053;-77
2023/05/02 03:31:15;;;;;;;0.90;0.90;;;9.50;99.90;;;;;;5016724;28;20042;-76
2023/05/02 03:33:40;;;;;;;1.05;0.70;;;9.50;99.90;;;;;;5016487;28;20033;-77
2023/05/02 03:36:06;;;;;;;0.85;0.85;;;9.50;99.90;;;;;;5015165;28;20030;-77
2023/05/02 03:38:32;;;;;;;1.30;1.20;;;9.40;99.90;;;;;;5026282;28;20478;-77
2023/05/02 03:40:58;;;;;;;1.50;1.40;;;9.30;99.90;;;;;;5038543;28;20085;-77
2023/05/02 03:43:24;;;;;;;2.03;1.30;;;9.30;99.90;;;;;;5017600;28;20029;-77
2023/05/02 03:45:49;;;;;;;1.65;1.00;;;9.20;99.90;;;;;;5029173;28;20052;-77
2023/05/02 03:48:15;;;;;;;0.90;0.90;;;9.10;99.90;;;;;;5028042;28;20026;-77
2023/05/02 03:50:42;;;;;;;1.00;1.00;;;9.10;99.90;;;;;;5035279;28;20132;-76
2023/05/02 03:53:08;;;;;;;1.48;1.30;;;9.10;99.90;;;;;;5041401;28;20241;-77
2023/05/02 03:55:44;;;;;;;1.10;1.00;;;9.00;99.90;;;;;;5041798;28;20549;-77
2023/05/02 03:58:10;;;;;;;0.95;0.95;;;8.90;99.90;;;;;;5031249;28;20033;-77
2023/05/02 04:00:37;;;;;;;1.20;1.00;;;8.90;99.90;;;;;;5015337;28;20109;-78
2023/05/02 04:03:03;;;;;;;1.05;1.00;;;8.90;99.90;;;;;;5014802;28;20029;-77
2023/05/02 04:05:29;;;;;;;0.95;0.90;;;8.80;99.90;;;;;;5016604;28;20399;-76
2023/05/02 04:07:55;;;;;;;1.00;1.00;;;8.90;99.90;;;;;;5019731;28;20045;-77
2023/05/02 04:10:21;;;;;;;0.68;0.68;;;8.90;99.90;;;;;;5001404;28;20037;-78
2023/05/02 04:12:47;;;;;;;0.80;0.80;;;8.90;99.90;;;;;;5015721;28;20088;-77
2023/05/02 04:15:13;;;;;;;0.90;0.90;;;8.90;99.90;;;;;;5028676;28;20097;-76
2023/05/02 04:17:38;;;;;;;0.60;0.60;;;8.90;99.90;;;;;;5046678;28;20048;-77
2023/05/02 04:20:05;;;;;;;0.73;0.73;;;9.00;99.90;;;;;;5047211;28;20132;-76
2023/05/02 04:22:32;;;;;;;0.80;0.80;;;9.10;99.90;;;;;;5042883;28;20331;-77
2023/05/02 04:24:57;;;;;;;2.60;1.40;;;9.10;99.90;;;;;;5041084;28;20532;-77
2023/05/02 04:27:24;;;;;;;1.38;1.27;;;9.20;99.90;;;;;;5037497;28;20089;-77
2023/05/02 04:29:52;;;;;;;1.38;1.27;;;9.20;99.90;;;;;;5035603;28;20026;-77
2023/05/02 04:32:18;;;;;;;1.17;1.17;;;9.30;99.90;;;;;;5033789;28;20041;-76
2023/05/02 04:34:43;;;;;;;1.17;1.10;;;9.40;99.90;;;;;;5033887;28;20055;-78
2023/05/02 04:37:09;;;;;;;1.30;1.20;;;9.40;99.90;;;;;;5026967;28;20026;-78
2023/05/02 04:39:35;;;;;;;1.67;1.58;;;9.50;99.90;;;;;;5014177;28;20082;-76
2023/05/02 04:42:00;;;;;;;1.10;1.10;;;9.50;99.90;;;;;;4996373;28;20098;-76
2023/05/02 04:44:26;;;;;;;1.30;1.20;;;9.60;99.90;;;;;;5016649;28;20022;-77
2023/05/02 04:46:52;;;;;;;1.38;1.27;;;9.70;99.90;;;;;;5006607;28;20041;-77
2023/05/02 04:49:18;;;;;;;1.10;1.10;;;9.70;99.90;;;;;;5032049;28;20025;-76
2023/05/02 04:51:44;;;;;;;1.13;1.08;;;9.80;99.90;;;;;;5033418;28;20395;-77
2023/05/02 04:54:11;;;;;;;0.93;0.93;;;9.90;99.90;;;;;;5032224;28;20041;-76
2023/05/02 04:56:37;;;;;;;1.27;0.80;;;9.90;99.90;;;;;;5027426;28;20105;-77
2023/05/02 04:59:02;;;;;;;1.00;1.00;;;10.00;99.90;;;;;;5012817;28;20440;-77
2023/05/02 05:01:28;;;;;;;1.25;1.15;;;10.00;99.90;;;;;;5013004;28;20478;-76
2023/05/02 05:03:55;;;;;;;1.00;0.90;;;10.10;99.90;;;;;;5013504;28;20360;-76
2023/05/02 05:06:21;;;;;;;1.23;1.13;;;10.10;99.90;;;;;;4999052;28;20021;-77
2023/05/02 05:08:47;;;;;;;2.50;1.80;;;10.30;99.90;;;;;;5033729;28;20067;-77
2023/05/02 05:11:14;;;;;;;1.92;1.73;;;10.30;99.90;;;;;;5046891;28;20030;-77
2023/05/02 05:13:41;;;;;;;1.98;1.80;;;10.40;99.90;;;;;;5056940;28;20022;-76
2023/05/02 05:16:07;;;;;;;1.83;1.45;;;10.50;99.90;;;;;;5029264;28;20028;-77
2023/05/02 05:18:39;;;;;;;1.92;1.60;;;10.60;99.90;;;;;;5025120;28;20026;-77
2023/05/02 05:21:09;;;;;;;1.42;1.33;;;10.60;99.90;;;;;;4998552;28;20156;-76
2023/05/02 05:23:36;;;;;;;1.20;1.10;;;10.70;99.90;;;;;;4999028;28;20040;-77
2023/05/02 05:26:11;;;;;;;1.02;1.02;;;10.80;99.90;;;;;;5016916;28;20072;-77
2023/05/02 05:28:37;;;;;;;1.75;1.33;;;10.90;99.90;;;;;;5033998;28;20025;-77
2023/05/02 05:31:07;;;;;;;1.42;1.33;;;11.00;99.90;;;;;;5035532;28;20018;-76
2023/05/02 05:33:33;;;;;;;1.10;1.10;;;11.00;99.90;;;;;;5037806;28;20030;-76
2023/05/02 05:36:07;;;;;;;1.83;1.73;;;11.10;99.90;;;;;;5034790;28;20022;-77
2023/05/02 05:38:33;;;;;;;2.22;1.40;;;11.20;99.90;;;;;;5030895;28;20018;-77
2023/05/02 05:41:00;;;;;;;1.33;1.23;;;11.20;99.90;;;;;;4997761;28;20094;-78
2023/05/02 05:43:26;;;;;;;1.50;1.40;;;11.20;99.90;;;;;;5016188;28;20088;-76
2023/05/02 05:45:52;;;;;;;1.38;1.27;;;11.30;99.90;;;;;;5031186;28;20108;-77
2023/05/02 05:48:18;;;;;;;1.73;1.60;;;11.30;99.90;;;;;;5032235;28;20038;-77
2023/05/02 05:50:43;;;;;;;2.92;1.80;;;11.20;99.90;;;;;;5035916;28;20513;-77
2023/05/02 05:53:09;;;;;;;1.45;1.35;;;11.30;99.90;;;;;;5034831;28;20105;-77
2023/05/02 05:55:36;;;;;;;1.40;1.25;;;11.30;99.90;;;;;;5034840;28;20018;-77
2023/05/02 05:58:02;;;;;;;1.67;1.58;;;11.30;99.90;;;;;;5025834;28;20065;-77
2023/05/02 06:00:28;;;;;;;1.25;1.20;;;11.30;99.90;;;;;;5035847;28;20037;-77
2023/05/02 06:02:54;;;;;;;3.47;1.17;;;11.40;99.90;;;;;;5039217;28;20025;-76
2023/05/02 06:05:22;;;;;;;1.40;1.30;;;11.40;99.90;;;;;;5038165;28;20029;-77
2023/05/02 06:07:51;;;;;;;1.63;1.52;;;11.50;99.90;;;;;;5023278;28;20040;-77
2023/05/02 06:10:19;;;;;;;1.63;1.52;;;11.60;99.90;;;;;;5017200;28;20474;-77
2023/05/02 06:12:45;;;;;;;1.48;1.38;;;11.70;99.90;;;;;;5016271;28;20032;-77
2023/05/02 06:15:11;;;;;;;1.50;1.40;;;11.70;99.90;;;;;;5026151;28;20013;-77
2023/05/02 06:17:36;;;;;;;1.27;1.17;;;11.90;99.90;;;;;;5023824;28;20030;-78
2023/05/02 06:20:03;;;;;;;1.50;1.40;;;12.10;99.90;;;;;;5039296;28;20014;-78
2023/05/02 06:22:28;;;;;;;1.88;1.10;;;12.40;99.90;;;;;;5035256;28;20034;-79
2023/05/02 06:24:55;;;;;;;1.23;1.13;;;12.60;99.90;;;;;;5020021;28;20036;-77
2023/05/02 06:27:20;;;;;;;1.00;1.00;;;12.80;99.70;;;;;;5019207;28;20024;-78
2023/05/02 06:29:46;;;;;;;1.27;0.95;;;12.90;99.60;;;;;;5019442;28;20069;-78
2023/05/02 06:32:11;;;;;;;1.20;1.10;;;13.10;98.90;;;;;;5029567;28;20017;-78
2023/05/02 06:34:37;;;;;;;1.42;1.33;;;13.30;98.30;;;;;;5030396;28;20036;-78
2023/05/02 06:37:03;;;;;;;1.70;1.30;;;13.20;97.60;;;;;;5034314;28;20033;-78
2023/05/02 06:39:28;;;;;;;2.67;2.33;;;13.20;97.90;;;;;;5018948;28;20466;-78
2023/05/02 06:41:57;;;;;;;1.20;1.10;;;13.30;97.60;;;;;;5019944;28;20080;-78
2023/05/02 06:44:23;;;;;;;1.90;1.27;;;13.30;97.60;;;;;;5002596;28;20036;-78
2023/05/02 06:46:49;;;;;;;1.40;1.33;;;13.50;97.60;;;;;;5021706;28;20438;-78
2023/05/02 06:49:15;;;;;;;2.35;1.30;;;13.60;97.00;;;;;;5020115;28;20024;-78
2023/05/02 06:51:46;;;;;;;1.65;1.20;;;13.60;96.80;;;;;;5025884;28;20022;-78
2023/05/02 06:54:15;;;;;;;1.13;1.10;;;13.60;96.90;;;;;;5032115;28;20046;-79
2023/05/02 06:56:44;;;;;;;1.45;1.35;;;13.70;96.70;;;;;;5023356;28;20279;-78
2023/05/02 06:59:10;;;;;;;1.83;1.48;;;13.70;96.40;;;;;;5021354;28;20044;-79
2023/05/02 07:01:36;;;;;;;3.97;2.97;;;13.80;96.30;;;;;;5035305;28;20048;-78
2023/05/02 07:04:04;;;;;;;4.10;2.85;;;13.80;95.70;;;;;;5043060;28;20081;-79
2023/05/02 07:06:30;;;;;;;2.90;2.70;;;13.70;95.50;;;;;;5042046;28;20026;-78
2023/05/02 07:08:56;;;;;;;3.55;2.45;;;13.70;95.80;;;;;;5004106;28;20550;-77
2023/05/02 07:11:22;;;;;;;4.25;1.95;;;13.80;95.70;;;;;;5003766;28;20060;-78
2023/05/02 07:13:48;;;;;;;3.47;1.63;;;13.90;95.70;;;;;;5020810;28;20033;-79
2023/05/02 07:16:14;;;;;;;3.08;1.70;;;14.00;95.40;;;;;;5023146;28;20073;-79
2023/05/02 07:18:41;;;;;;;4.75;2.80;;;14.10;95.60;;;;;;5045909;28;20040;-77
2023/05/02 07:21:07;;;;;;;2.40;2.20;;;14.20;94.40;;;;;;5052398;28;20025;-78
2023/05/02 07:23:33;;;;;;;2.63;2.17;;;14.20;94.50;;;;;;5047024;28;20021;-78
2023/05/02 07:25:58;;;;;;;2.55;2.10;;;14.20;94.60;;;;;;5038587;28;20029;-78
2023/05/02 07:28:24;;;;;;;1.70;1.60;;;14.30;94.30;;;;;;5025538;28;20045;-78
2023/05/02 07:30:50;;;;;;;2.58;2.38;;;14.40;94.60;;;;;;5018889;28;20045;-77
2023/05/02 07:33:15;;;;;;;2.83;2.35;;;14.40;94.20;;;;;;5030164;28;20436;-78
2023/05/02 07:35:41;;;;;;;2.08;1.88;;;14.40;94.30;;;;;;5034396;28;20069;-78
2023/05/02 07:38:07;;;;;;;3.53;3.20;;;14.30;94.00;;;;;;5023960;28;20029;-78
2023/05/02 07:40:32;;;;;;;3.10;2.38;;;14.30;93.70;;;;;;5019201;28;20193;-77
2023/05/02 07:43:00;;;;;;;2.25;2.05;;;14.20;93.80;;;;;;5020864;28;20045;-78
2023/05/02 07:45:26;;;;;;;2.35;1.98;;;14.20;94.00;;;;;;5022605;28;20022;-78
2023/05/02 07:47:51;;;;;;;3.85;2.50;;;14.20;94.20;;;;;;5023131;28;20048;-79
2023/05/02 07:50:17;;;;;;;5.53;2.92;;;14.30;93.80;;;;;;5023691;28;20030;-78
2023/05/02 07:52:43;;;;;;;2.70;2.50;;;14.20;93.70;;;;;;5023757;28;20030;-79
2023/05/02 07:55:09;;;;;;;2.70;2.03;;;14.20;93.90;;;;;;5012760;28;20038;-78
2023/05/02 07:57:35;;;;;;;2.72;2.33;;;14.20;94.20;;;;;;5033194;28;20063;-78
2023/05/02 08:00:01;;;;;;;2.13;1.92;;;14.30;93.90;;;;;;5037375;28;20034;-79
2023/05/02 08:02:27;;;;;;;2.28;2.08;;;14.40;94.30;;;;;;5051277;28;20103;-77
2023/05/02 08:04:53;;;;;;;2.05;1.92;;;14.60;93.70;;;;;;5024737;28;20088;-78
2023/05/02 08:07:19;;;;;;;1.95;1.85;;;14.70;93.50;;;;;;5044453;28;20022;-79
2023/05/02 08:09:45;;;;;;;2.03;1.83;;;15.00;93.10;;;;;;5035221;28;20080;-78
2023/05/02 08:12:10;;;;;;;1.83;1.73;;;15.10;92.70;;;;;;5024174;28;20049;-78
2023/05/02 08:14:36;;;;;;;2.00;1.90;;;15.30;92.50;;;;;;5019274;28;20034;-78
2023/05/02 08:17:02;;;;;;;1.90;1.80;;;15.50;91.80;;;;;;5018938;28;20026;-78
2023/05/02 08:19:27;;;;;;;1.17;1.17;;;15.60;91.50;;;;;;5021377;28;20086;-77
2023/05/02 08:21:53;;;;;;;2.63;2.10;;;15.80;91.50;;;;;;5025931;28;20018;-77
2023/05/02 08:24:20;;;;;;;4.78;2.90;;;15.90;90.70;;;;;;5029947;28;20048;-78
2023/05/02 08:26:49;;;;;;;2.40;2.22;;;16.00;90.10;;;;;;5023531;28;20026;-77
2023/05/02 08:29:15;;;;;;;2.28;2.08;;;16.00;90.30;;;;;;5041907;28;20091;-78
2023/05/02 08:31:41;;;;;;;3.38;2.13;;;16.00;90.20;;;;;;5035700;28;20491;-78
2023/05/02 08:34:07;;;;;;;2.03;1.80;;;16.00;89.80;;;;;;5028044;28;20025;-77
2023/05/02 08:36:33;;;;;;;2.05;1.90;;;16.10;90.00;;;;;;5020065;28;20529;-76
2023/05/02 08:38:59;;;;;;;3.25;2.78;;;16.10;89.30;;;;;;5003578;28;20084;-78
2023/05/02 08:41:27;;;;;;;3.55;2.80;;;16.20;88.50;;;;;;5002058;28;20372;-78
2023/05/02 08:43:54;;;;;;;2.78;2.40;;;16.30;87.50;;;;;;5021594;28;20021;-77
2023/05/02 08:46:22;;;;;;;4.15;2.35;;;16.30;88.80;;;;;;5018036;28;20049;-78
2023/05/02 08:48:50;;;;;;;3.35;2.28;;;16.40;87.70;;;;;;5037134;28;20091;-78
2023/05/02 08:51:16;;;;;;;2.53;2.25;;;16.60;87.10;;;;;;5042630;28;20030;-78
2023/05/02 08:53:43;;;;;;;2.15;2.03;;;16.70;86.40;;;;;;5044253;28;20021;-77
2023/05/02 08:56:10;;;;;;;4.22;3.83;;;16.80;85.60;;;;;;5042839;28;20033;-79
2023/05/02 08:58:38;;;;;;;7.55;3.50;;;16.90;84.30;;;;;;5027798;28;20128;-77
2023/05/02 09:01:11;;;;;;;2.85;2.25;;;16.90;83.70;;;;;;5039183;28;20029;-78
2023/05/02 09:03:37;;;;;;;2.13;1.95;;;16.90;84.40;;;;;;5033355;28;20386;-78
2023/05/02 09:06:09;;;;;;;2.42;2.10;;;17.10;84.10;;;;;;5041784;28;20100;-78
2023/05/02 09:08:36;;;;;;;2.60;2.40;;;17.30;84.30;;;;;;5048837;28;20030;-77
2023/05/02 09:11:03;;;;;;;3.20;2.90;;;17.70;82.00;;;;;;5056583;28;20085;-80
2023/05/02 09:13:30;;;;;;;3.53;2.60;;;17.70;79.30;;;;;;5036512;28;20033;-77
2023/05/02 09:15:58;;;;;;;2.45;2.25;;;17.60;79.70;;;;;;5035107;28;20025;-78
2023/05/02 09:18:46;;;;;;;3.03;2.60;;;17.60;79.90;;;;;;5018587;28;20041;-77
2023/05/02 09:21:21;;;;;;;3.60;3.05;;;17.60;79.10;;;;;;5029223;28;20471;-77
2023/05/02 09:23:50;;;;;;;2.60;2.40;;;17.50;79.00;;;;;;5022146;28;20054;-77
2023/05/02 09:26:32;;;;;;;2.30;2.10;;;17.50;79.50;;;;;;5020788;28;20022;-78
2023/05/02 09:29:01;;;;;;;;;;;17.50;79.80;;;;;;5003080;28;20022;-77
2023/05/02 09:31:33;;;;;;;2.90;2.22;;;17.50;79.20;;;;;;5022401;28;19905;-78
2023/05/02 09:34:13;;;;;;;3.40;2.75;;;17.50;80.10;;;;;;5015697;28;20120;-78
2023/05/02 09:36:40;;;;;;;1.95;1.67;;;17.40;79.40;;;;;;5042376;28;20032;-78
2023/05/02 09:39:15;;;;;;;2.10;1.95;;;17.50;80.20;;;;;;5043194;28;20036;-77
2023/05/02 09:41:42;;;;;;;2.42;2.20;;;17.50;79.90;;;;;;5038104;28;20442;-78
2023/05/02 09:44:12;;;;;;;3.08;2.88;;;17.60;79.00;;;;;;5020998;28;20089;-78
2023/05/02 09:46:43;;;;;;;3.00;2.70;;;17.50;78.20;;;;;;5021093;28;20072;-77
2023/05/02 09:49:09;;;;;;;3.38;2.47;;;17.40;79.10;;;;;;5020486;28;20041;-78
2023/05/02 09:51:35;;;;;;;2.47;2.03;;;17.30;79.20;;;;;;5021442;28;20129;-78
2023/05/02 09:54:02;;;;;;;2.85;2.60;;;17.30;79.70;;;;;;5039622;28;20033;-77
2023/05/02 09:56:27;;;;;;;2.72;2.53;;;17.20;79.40;;;;;;5038969;28;20014;-78
2023/05/02 09:59:16;;;;;;;2.25;2.00;;;17.10;80.00;;;;;;5039655;28;20026;-79
2023/05/02 10:01:42;;;;;;;4.72;3.30;;;17.00;80.80;;;;;;5037620;28;20127;-78
2023/05/02 10:04:17;;;;;;;3.92;2.90;;;16.90;80.00;;;;;;5028353;28;20034;-78
2023/05/02 10:06:43;;;;;;;2.60;2.03;;;16.90;80.80;;;;;;5004001;28;20029;-78
2023/05/02 10:09:11;;;;;;;2.80;2.47;;;16.90;81.00;;;;;;5020066;28;20030;-78
2023/05/02 10:11:43;;;;;;;2.63;2.30;;;17.00;80.50;;;;;;5031941;28;20029;-78
2023/05/02 10:14:09;;;;;;;4.68;4.15;;;17.20;79.70;;;;;;5056449;28;20065;-78
2023/05/02 10:16:50;;;;;;;3.30;3.00;;;17.20;77.90;;;;;;5056303;28;20022;-78
2023/05/02 10:19:26;;;;;;;2.47;2.28;;;17.20;78.20;;;;;;5036072;28;20120;-78
2023/05/02 10:21:53;;;;;;;3.17;2.15;;;17.30;77.60;;;;;;5042183;28;20060;-78
2023/05/02 10:24:20;;;;;;;1.73;1.63;;;17.40;77.70;;;;;;5047334;28;20017;-78
2023/05/02 10:26:47;;;;;;;2.97;2.75;;;17.60;77.40;;;;;;5043111;28;20029;-78
2023/05/02 10:29:13;;;;;;;2.85;2.15;;;17.60;76.60;;;;;;5041007;28;20032;-78
2023/05/02 10:31:41;;;;;;;3.25;2.85;;;17.60;76.30;;;;;;5042889;28;20022;-78
2023/05/02 10:34:09;;;;;;;2.78;1.98;;;17.40;75.00;;;;;;5025274;28;20410;-77
2023/05/02 10:36:35;;;;;;;3.50;3.20;;;17.20;76.20;;;;;;5039952;28;20097;-79
2023/05/02 10:39:01;;;;;;;3.83;3.40;;;17.10;76.40;;;;;;5040944;28;20048;-77
2023/05/02 10:41:31;;;;;;;2.60;2.40;;;16.80;76.20;;;;;;5037923;28;20017;-78
2023/05/02 10:43:57;;;;;;;3.55;2.05;;;16.60;77.80;;;;;;5040946;28;20064;-79
2023/05/02 10:46:30;;;;;;;1.90;1.80;;;16.50;78.50;;;;;;5039772;28;20080;-79
2023/05/02 10:49:26;;;;;;;1.65;1.55;;;16.50;79.00;;;;;;5044314;28;20052;-78
2023/05/02 10:51:52;;;;;;;1.75;1.65;;;16.40;79.00;;;;;;5041781;28;20037;-78
2023/05/02 10:54:24;;;;;;;4.68;4.15;;;16.40;79.20;;;;;;5004399;28;20097;-78
2023/05/02 10:57:05;;;;;;;7.00;5.32;;;16.20;78.30;;;;;;5025764;28;20132;-78
2023/05/02 10:59:39;;;;;;;4.57;3.75;;;15.90;79.30;;;;;;5030831;28;20021;-78
2023/05/02 11:02:26;;;;;;;5.63;4.20;;;15.60;80.50;;;;;;5026466;28;20438;-78
2023/05/02 11:05:06;;;;;;;9.80;5.32;;;15.30;82.20;;;;;;5024124;28;20026;-78
2023/05/02 11:07:33;;;;;;;6.75;5.75;;;15.00;84.50;;;;;;5021373;28;20489;-76
2023/05/02 11:10:19;;;;;;;7.35;5.00;;;;;;;;;;5021067;28;20034;-78
2023/05/02 11:13:10;;;;;;;5.68;4.85;;;14.40;87.90;;;;;;5028393;28;20030;-78
2023/05/02 11:15:39;;;;;;;8.13;5.43;;;14.10;89.90;;;;;;5019788;28;20030;-78
2023/05/02 11:18:06;;;;;;;12.35;6.90;;;13.80;91.00;;;;;;5040814;28;20073;-78
2023/05/02 11:20:38;;;;;;;7.78;6.05;;;13.70;93.00;;;;;;5038296;28;20137;-78
2023/05/02 11:23:17;;;;;;;6.72;5.05;;;13.60;93.80;;;;;;5026779;28;20119;-78
2023/05/02 11:25:44;;;;;;;5.60;4.88;;;13.50;94.60;;;;;;5019190;28;20086;-77
2023/05/02 11:28:35;;;;;;;4.38;3.97;;;13.40;95.30;;;;;;5018505;28;20030;-78
2023/05/02 11:31:05;;;;;;;5.03;3.93;;;13.40;96.20;;;;;;5011313;28;20029;-79
2023/05/02 11:33:30;;;;;;;4.05;3.65;;;13.40;97.30;;;;;;5027257;28;20323;-77
2023/05/02 11:35:57;;;;;;;3.50;3.20;;;13.50;98.10;;;;;;5001362;28;20026;-79
2023/05/02 11:38:24;;;;;;;3.05;2.78;;;13.60;98.70;;;;;;5019889;28;20379;-79
2023/05/02 11:40:54;;;;;;;3.15;2.83;;;13.80;98.80;;;;;;5005185;28;20033;-78
2023/05/02 11:43:21;;;;;;;2.55;2.35;;;13.90;98.50;;;;;;5033569;28;20386;-78
2023/05/02 11:45:47;;;;;;;3.75;3.40;;;13.90;98.30;;;;;;5040230;28;20025;-78
2023/05/02 11:48:16;;;;;;;2.67;2.42;;;13.90;97.70;;;;;;5040010;28;20022;-78
2023/05/02 11:50:46;;;;;;;2.17;1.98;;;14.00;98.00;;;;;;5037361;28;20441;-78
2023/05/02 11:53:14;;;;;;;2.25;2.05;;;14.10;98.20;;;;;;5028993;28;20034;-78
2023/05/02 11:55:48;;;;;;;2.55;2.35;;;14.20;98.10;;;;;;5020615;28;20026;-79
2023/05/02 11:58:16;;;;;;;3.20;2.90;;;14.40;98.10;;;;;;5030787;28;20036;-78
2023/05/02 12:00:45;;;;;;;2.83;2.58;;;14.50;97.90;;;;;;5039746;28;20538;-78
2023/05/02 12:03:21;;;;;;;3.10;2.83;;;14.70;97.60;;;;;;5039346;28;20068;-78
2023/05/02 12:05:47;;;;;;;2.20;2.00;;;14.90;97.80;;;;;;5020874;28;20451;-78
2023/05/02 12:08:21;;;;;;;2.10;1.90;;;15.10;97.20;;;;;;5020514;28;20057;-78
2023/05/02 12:10:47;;;;;;;2.10;1.75;;;15.30;96.70;;;;;;5021696;28;20408;-78
2023/05/02 12:13:13;;;;;;;1.95;1.60;;;15.60;95.90;;;;;;5037098;28;20068;-78
2023/05/02 12:15:39;;;;;;;1.42;1.33;;;15.70;95.40;;;;;;5038154;28;20021;-78
2023/05/02 12:18:06;;;;;;;1.20;1.20;;;15.80;94.70;;;;;;5022161;28;20114;-78
2023/05/02 12:20:32;;;;;;;1.30;1.20;;;16.00;94.10;;;;;;5039463;28;20029;-79
2023/05/02 12:22:59;;;;;;;1.02;1.02;;;16.10;93.70;;;;;;5021683;28;20095;-79
2023/05/02 12:25:25;;;;;;;1.08;1.00;;;16.30;93.50;;;;;;5024042;28;20025;-77
2023/05/02 12:28:01;;;;;;;1.05;1.05;;;16.70;93.30;;;;;;5057310;28;20061;-77
2023/05/02 12:30:30;;;;;;;1.20;1.10;;;16.90;92.10;;;;;;5047755;28;20040;-78
2023/05/02 12:32:57;;;;;;;0.98;0.98;;;17.10;91.10;;;;;;5039415;28;20030;-78
2023/05/02 12:35:23;;;;;;;1.00;1.00;;;17.30;90.50;;;;;;5038324;28;20097;-77
2023/05/02 12:37:49;;;;;;;1.10;1.10;;;17.40;90.30;;;;;;5031529;28;20011;-76
2023/05/02 12:40:16;;;;;;;1.38;1.27;;;17.50;89.60;;;;;;5056937;28;20104;-77
2023/05/02 12:42:42;;;;;;;1.13;1.13;;;17.60;88.70;;;;;;5039280;28;20137;-78
2023/05/02 12:45:17;;;;;;;1.17;1.08;;;17.90;87.50;;;;;;5023802;28;20439;-76
2023/05/02 12:47:46;;;;;;;1.67;1.58;;;18.00;85.90;;;;;;5022828;28;20218;-78
2023/05/02 12:50:12;;;;;;;2.20;2.00;;;17.90;85.00;;;;;;5037553;28;20038;-77
2023/05/02 12:52:58;;;;;;;3.97;1.85;;;17.70;84.90;;;;;;5036239;28;20160;-78
2023/05/02 12:55:28;;;;;;;1.23;1.13;;;17.70;86.00;;;;;;5041782;28;20021;-78
2023/05/02 12:58:01;;;;;;;1.58;1.48;;;17.90;85.90;;;;;;5043459;28;20025;-78
2023/05/02 13:00:28;;;;;;;1.10;1.10;;;18.10;85.00;;;;;;5044113;28;20105;-78